sensor_id;sensor_type;location;lat;lon;timestamp;pressure;altitude;pressure_sealevel;temperature;humidity
36386;BME280;24125;47.482;8.770;2023-04-26T00:00:02;96265.25;;;10.05;76.17
36386;BME280;24125;47.482;8.770;2023-04-26T00:02:39;96255.66;;;10.04;76.79
36386;BME280;24125;47.482;8.770;2023-04-26T00:05:11;96253.94;;;10.08;77.11
36386;BME280;24125;47.482;8.770;2023-04-26T00:07:45;96257.88;;;10.11;77.06
36386;BME280;24125;47.482;8.770;2023-04-26T00:10:19;96256.91;;;10.15;77.30
36386;BME280;24125;47.482;8.770;2023-04-26T00:12:52;96257.88;;;10.19;77.21
36386;BME280;24125;47.482;8.770;2023-04-26T00:15:25;96258.31;;;10.21;77.03
36386;BME280;24125;47.482;8.770;2023-04-26T00:17:57;96259.88;;;10.23;76.94
36386;BME280;24125;47.482;8.770;2023-04-26T00:20:30;96260.97;;;10.21;76.32
36386;BME280;24125;47.482;8.770;2023-04-26T00:23:03;96263.31;;;10.23;75.99
36386;BME280;24125;47.482;8.770;2023-04-26T00:25:40;96273.41;;;10.17;75.77
36386;BME280;24125;47.482;8.770;2023-04-26T00:28:13;96263.97;;;10.11;75.63
36386;BME280;24125;47.482;8.770;2023-04-26T00:30:46;96266.19;;;10.09;75.20
36386;BME280;24125;47.482;8.770;2023-04-26T00:33:19;96274.69;;;10.03;75.13
36386;BME280;24125;47.482;8.770;2023-04-26T00:35:52;96269.97;;;10.00;75.13
36386;BME280;24125;47.482;8.770;2023-04-26T00:38:24;96260.91;;;9.92;75.37
36386;BME280;24125;47.482;8.770;2023-04-26T00:40:58;96268.75;;;9.89;75.19
36386;BME280;24125;47.482;8.770;2023-04-26T00:43:31;96265.16;;;9.84;75.41
36386;BME280;24125;47.482;8.770;2023-04-26T00:46:04;96262.34;;;9.81;75.39
36386;BME280;24125;47.482;8.770;2023-04-26T00:48:37;96269.88;;;9.79;75.60
36386;BME280;24125;47.482;8.770;2023-04-26T00:51:10;96270.16;;;9.77;75.96
36386;BME280;24125;47.482;8.770;2023-04-26T00:53:44;96273.97;;;9.76;75.92
36386;BME280;24125;47.482;8.770;2023-04-26T00:56:18;96274.41;;;9.78;76.35
36386;BME280;24125;47.482;8.770;2023-04-26T00:58:52;96265.63;;;9.78;76.58
36386;BME280;24125;47.482;8.770;2023-04-26T01:01:25;96269.53;;;9.80;76.73
36386;BME280;24125;47.482;8.770;2023-04-26T01:03:58;96275.66;;;9.81;76.71
36386;BME280;24125;47.482;8.770;2023-04-26T01:06:32;96269.72;;;9.84;76.91
36386;BME280;24125;47.482;8.770;2023-04-26T01:09:05;96270.94;;;9.87;76.96
36386;BME280;24125;47.482;8.770;2023-04-26T01:11:41;96270.16;;;9.86;76.95
36386;BME280;24125;47.482;8.770;2023-04-26T01:14:14;96265.75;;;9.90;77.00
36386;BME280;24125;47.482;8.770;2023-04-26T01:16:47;96257.13;;;9.93;77.06
36386;BME280;24125;47.482;8.770;2023-04-26T01:19:21;96262.13;;;9.95;76.81
36386;BME280;24125;47.482;8.770;2023-04-26T01:21:54;96260.25;;;9.95;76.75
36386;BME280;24125;47.482;8.770;2023-04-26T01:24:28;96252.25;;;9.95;76.36
36386;BME280;24125;47.482;8.770;2023-04-26T01:27:01;96253.03;;;9.96;76.34
36386;BME280;24125;47.482;8.770;2023-04-26T01:29:34;96263.25;;;9.94;76.20
36386;BME280;24125;47.482;8.770;2023-04-26T01:32:08;96260.13;;;9.92;76.23
36386;BME280;24125;47.482;8.770;2023-04-26T01:34:41;96256.66;;;9.91;76.21
36386;BME280;24125;47.482;8.770;2023-04-26T01:37:13;96262.00;;;9.91;76.13
36386;BME280;24125;47.482;8.770;2023-04-26T01:39:48;96256.50;;;9.88;75.96
36386;BME280;24125;47.482;8.770;2023-04-26T01:42:20;96259.97;;;9.88;75.97
36386;BME280;24125;47.482;8.770;2023-04-26T01:44:53;96259.81;;;9.84;76.01
36386;BME280;24125;47.482;8.770;2023-04-26T01:47:26;96255.13;;;9.81;75.93
36386;BME280;24125;47.482;8.770;2023-04-26T01:49:59;96265.00;;;9.81;75.98
36386;BME280;24125;47.482;8.770;2023-04-26T01:52:31;96253.06;;;9.78;75.86
36386;BME280;24125;47.482;8.770;2023-04-26T01:55:07;96260.63;;;9.76;75.80
36386;BME280;24125;47.482;8.770;2023-04-26T01:57:40;96253.25;;;9.73;75.45
36386;BME280;24125;47.482;8.770;2023-04-26T02:00:13;96259.69;;;9.72;75.58
36386;BME280;24125;47.482;8.770;2023-04-26T02:02:46;96251.53;;;9.69;75.51
36386;BME280;24125;47.482;8.770;2023-04-26T02:05:19;96257.81;;;9.64;75.38
36386;BME280;24125;47.482;8.770;2023-04-26T02:07:53;96245.47;;;9.60;75.12
36386;BME280;24125;47.482;8.770;2023-04-26T02:10:27;96245.59;;;9.55;75.15
36386;BME280;24125;47.482;8.770;2023-04-26T02:13:00;96251.56;;;9.52;75.34
36386;BME280;24125;47.482;8.770;2023-04-26T02:15:33;96239.66;;;9.49;75.13
36386;BME280;24125;47.482;8.770;2023-04-26T02:18:06;96233.69;;;9.43;75.28
36386;BME280;24125;47.482;8.770;2023-04-26T02:20:40;96227.59;;;9.43;75.02
36386;BME280;24125;47.482;8.770;2023-04-26T02:23:13;96224.00;;;9.39;75.20
36386;BME280;24125;47.482;8.770;2023-04-26T02:25:49;96239.03;;;9.35;75.08
36386;BME280;24125;47.482;8.770;2023-04-26T02:28:22;96232.78;;;9.31;74.55
36386;BME280;24125;47.482;8.770;2023-04-26T02:30:55;96233.28;;;9.24;74.32
36386;BME280;24125;47.482;8.770;2023-04-26T02:33:28;96234.50;;;9.18;74.38
36386;BME280;24125;47.482;8.770;2023-04-26T02:36:02;96242.69;;;9.13;73.78
36386;BME280;24125;47.482;8.770;2023-04-26T02:38:36;96236.25;;;9.05;73.88
36386;BME280;24125;47.482;8.770;2023-04-26T02:41:10;96234.81;;;8.99;73.63
36386;BME280;24125;47.482;8.770;2023-04-26T02:43:43;96230.75;;;8.93;74.06
36386;BME280;24125;47.482;8.770;2023-04-26T02:46:15;96237.66;;;8.86;73.90
36386;BME280;24125;47.482;8.770;2023-04-26T02:48:48;96244.72;;;8.82;74.25
36386;BME280;24125;47.482;8.770;2023-04-26T02:51:21;96239.22;;;8.78;74.02
36386;BME280;24125;47.482;8.770;2023-04-26T02:53:54;96242.47;;;8.75;74.58
36386;BME280;24125;47.482;8.770;2023-04-26T02:56:29;96233.56;;;8.71;74.78
36386;BME280;24125;47.482;8.770;2023-04-26T02:59:01;96233.88;;;8.69;74.94
36386;BME280;24125;47.482;8.770;2023-04-26T03:01:34;96225.41;;;8.67;75.12
36386;BME280;24125;47.482;8.770;2023-04-26T03:04:07;96231.81;;;8.66;75.04
36386;BME280;24125;47.482;8.770;2023-04-26T03:06:41;96223.38;;;8.64;75.36
36386;BME280;24125;47.482;8.770;2023-04-26T03:09:14;96228.72;;;8.64;75.29
36386;BME280;24125;47.482;8.770;2023-04-26T03:11:48;96232.47;;;8.63;75.59
36386;BME280;24125;47.482;8.770;2023-04-26T03:14:21;96229.81;;;8.63;75.35
36386;BME280;24125;47.482;8.770;2023-04-26T03:16:53;96242.78;;;8.65;75.56
36386;BME280;24125;47.482;8.770;2023-04-26T03:19:27;96232.91;;;8.65;75.71
36386;BME280;24125;47.482;8.770;2023-04-26T03:22:00;96226.81;;;8.65;75.69
36386;BME280;24125;47.482;8.770;2023-04-26T03:24:33;96239.50;;;8.68;75.64
36386;BME280;24125;47.482;8.770;2023-04-26T03:27:07;96245.13;;;8.66;75.59
36386;BME280;24125;47.482;8.770;2023-04-26T03:29:39;96233.69;;;8.66;75.38
36386;BME280;24125;47.482;8.770;2023-04-26T03:32:14;96242.03;;;8.64;75.27
36386;BME280;24125;47.482;8.770;2023-04-26T03:34:47;96244.19;;;8.62;75.10
36386;BME280;24125;47.482;8.770;2023-04-26T03:37:20;96233.38;;;8.59;74.76
36386;BME280;24125;47.482;8.770;2023-04-26T03:39:53;96245.13;;;8.58;74.89
36386;BME280;24125;47.482;8.770;2023-04-26T03:42:27;96254.53;;;8.55;75.11
36386;BME280;24125;47.482;8.770;2023-04-26T03:44:59;96242.31;;;8.54;75.51
36386;BME280;24125;47.482;8.770;2023-04-26T03:47:34;96241.53;;;8.54;75.53
36386;BME280;24125;47.482;8.770;2023-04-26T03:50:07;96241.53;;;8.54;75.63
36386;BME280;24125;47.482;8.770;2023-04-26T03:52:40;96239.66;;;8.54;75.86
36386;BME280;24125;47.482;8.770;2023-04-26T03:55:13;96241.22;;;8.55;75.59
36386;BME280;24125;47.482;8.770;2023-04-26T03:57:47;96234.78;;;8.56;76.18
36386;BME280;24125;47.482;8.770;2023-04-26T04:00:20;96235.75;;;8.60;76.37
36386;BME280;24125;47.482;8.770;2023-04-26T04:02:53;96224.78;;;8.62;76.12
36386;BME280;24125;47.482;8.770;2023-04-26T04:05:26;96223.38;;;8.64;76.54
36386;BME280;24125;47.482;8.770;2023-04-26T04:07:59;96223.84;;;8.66;76.36
36386;BME280;24125;47.482;8.770;2023-04-26T04:10:32;96231.53;;;8.68;76.06
36386;BME280;24125;47.482;8.770;2023-04-26T04:13:07;96223.53;;;8.68;76.17
36386;BME280;24125;47.482;8.770;2023-04-26T04:15:39;96229.34;;;8.70;75.72
36386;BME280;24125;47.482;8.770;2023-04-26T04:18:12;96232.78;;;8.70;76.06
36386;BME280;24125;47.482;8.770;2023-04-26T04:20:45;96235.44;;;8.70;75.94
36386;BME280;24125;47.482;8.770;2023-04-26T04:23:18;96237.00;;;8.72;75.86
36386;BME280;24125;47.482;8.770;2023-04-26T04:25:51;96235.44;;;8.70;75.95
36386;BME280;24125;47.482;8.770;2023-04-26T04:28:26;96227.47;;;8.70;75.79
36386;BME280;24125;47.482;8.770;2023-04-26T04:31:00;96228.06;;;8.67;75.43
36386;BME280;24125;47.482;8.770;2023-04-26T04:33:33;96234.47;;;8.66;75.11
36386;BME280;24125;47.482;8.770;2023-04-26T04:36:05;96231.69;;;8.63;74.72
36386;BME280;24125;47.482;8.770;2023-04-26T04:38:40;96229.94;;;8.58;74.89
36386;BME280;24125;47.482;8.770;2023-04-26T04:41:12;96240.44;;;8.55;74.94
36386;BME280;24125;47.482;8.770;2023-04-26T04:43:47;96237.59;;;8.51;75.15
36386;BME280;24125;47.482;8.770;2023-04-26T04:46:20;96229.13;;;8.49;75.31
36386;BME280;24125;47.482;8.770;2023-04-26T04:48:53;96234.75;;;8.48;75.71
36386;BME280;24125;47.482;8.770;2023-04-26T04:51:26;96240.56;;;8.50;76.18
36386;BME280;24125;47.482;8.770;2023-04-26T04:53:59;96244.50;;;8.52;76.28
36386;BME280;24125;47.482;8.770;2023-04-26T04:56:40;96239.34;;;8.56;77.06
36386;BME280;24125;47.482;8.770;2023-04-26T04:59:15;96237.78;;;8.63;77.13
36386;BME280;24125;47.482;8.770;2023-04-26T05:01:48;96241.56;;;8.71;77.49
36386;BME280;24125;47.482;8.770;2023-04-26T05:04:20;96249.06;;;8.78;77.90
36386;BME280;24125;47.482;8.770;2023-04-26T05:06:54;96246.91;;;8.88;77.54
36386;BME280;24125;47.482;8.770;2023-04-26T05:09:26;96253.00;;;8.97;77.99
36386;BME280;24125;47.482;8.770;2023-04-26T05:11:59;96247.38;;;9.07;78.16
36386;BME280;24125;47.482;8.770;2023-04-26T05:14:34;96260.69;;;9.16;78.05
36386;BME280;24125;47.482;8.770;2023-04-26T05:17:07;96263.38;;;9.25;78.33
36386;BME280;24125;47.482;8.770;2023-04-26T05:19:40;96257.69;;;9.35;78.43
36386;BME280;24125;47.482;8.770;2023-04-26T05:22:12;96267.25;;;9.44;78.68
36386;BME280;24125;47.482;8.770;2023-04-26T05:24:49;96271.16;;;9.56;78.66
36386;BME280;24125;47.482;8.770;2023-04-26T05:27:22;96261.28;;;9.65;78.92
36386;BME280;24125;47.482;8.770;2023-04-26T05:29:56;96269.41;;;9.77;78.82
36386;BME280;24125;47.482;8.770;2023-04-26T05:32:28;96272.19;;;9.89;78.99
36386;BME280;24125;47.482;8.770;2023-04-26T05:35:01;96271.53;;;10.01;79.25
36386;BME280;24125;47.482;8.770;2023-04-26T05:37:35;96267.75;;;10.10;78.94
36386;BME280;24125;47.482;8.770;2023-04-26T05:40:10;96269.44;;;10.24;79.03
36386;BME280;24125;47.482;8.770;2023-04-26T05:42:43;96261.41;;;10.32;79.28
36386;BME280;24125;47.482;8.770;2023-04-26T05:45:18;96264.81;;;10.41;79.34
36386;BME280;24125;47.482;8.770;2023-04-26T05:47:50;96266.03;;;10.52;78.70
36386;BME280;24125;47.482;8.770;2023-04-26T05:50:23;96262.53;;;10.61;79.21
36386;BME280;24125;47.482;8.770;2023-04-26T05:52:56;96267.03;;;10.69;78.94
36386;BME280;24125;47.482;8.770;2023-04-26T05:55:29;96262.75;;;10.76;78.41
36386;BME280;24125;47.482;8.770;2023-04-26T05:58:02;96261.13;;;10.84;78.98
36386;BME280;24125;47.482;8.770;2023-04-26T06:00:36;96278.66;;;10.93;79.00
36386;BME280;24125;47.482;8.770;2023-04-26T06:03:09;96275.16;;;11.02;78.92
36386;BME280;24125;47.482;8.770;2023-04-26T06:05:43;96277.75;;;11.10;78.68
36386;BME280;24125;47.482;8.770;2023-04-26T06:08:16;96277.38;;;11.20;78.28
36386;BME280;24125;47.482;8.770;2023-04-26T06:10:48;96282.19;;;11.27;78.59
36386;BME280;24125;47.482;8.770;2023-04-26T06:13:21;96280.88;;;11.33;78.23
36386;BME280;24125;47.482;8.770;2023-04-26T06:15:57;96280.38;;;11.40;77.66
36386;BME280;24125;47.482;8.770;2023-04-26T06:18:29;96283.28;;;11.47;77.38
36386;BME280;24125;47.482;8.770;2023-04-26T06:21:02;96278.84;;;11.51;77.82
36386;BME280;24125;47.482;8.770;2023-04-26T06:23:35;96282.56;;;11.58;77.45
36386;BME280;24125;47.482;8.770;2023-04-26T06:26:08;96278.91;;;11.63;78.07
36386;BME280;24125;47.482;8.770;2023-04-26T06:28:50;96275.25;;;11.67;77.71
36386;BME280;24125;47.482;8.770;2023-04-26T06:31:22;96283.53;;;11.75;77.25
36386;BME280;24125;47.482;8.770;2023-04-26T06:33:55;96283.31;;;11.80;77.76
36386;BME280;24125;47.482;8.770;2023-04-26T06:36:28;96299.28;;;11.88;77.98
36386;BME280;24125;47.482;8.770;2023-04-26T06:39:01;96287.72;;;11.96;78.32
36386;BME280;24125;47.482;8.770;2023-04-26T06:41:34;96276.59;;;12.06;78.83
36386;BME280;24125;47.482;8.770;2023-04-26T06:44:08;96289.22;;;12.18;79.10
36386;BME280;24125;47.482;8.770;2023-04-26T06:46:41;96285.44;;;12.31;79.07
36386;BME280;24125;47.482;8.770;2023-04-26T06:49:14;96300.53;;;12.48;79.35
36386;BME280;24125;47.482;8.770;2023-04-26T06:51:47;96296.38;;;12.63;80.21
36386;BME280;24125;47.482;8.770;2023-04-26T06:54:20;96292.72;;;12.79;80.36
36386;BME280;24125;47.482;8.770;2023-04-26T06:56:53;96293.28;;;12.97;79.69
36386;BME280;24125;47.482;8.770;2023-04-26T06:59:27;96294.59;;;13.15;79.97
36386;BME280;24125;47.482;8.770;2023-04-26T07:02:00;96285.50;;;13.32;80.35
36386;BME280;24125;47.482;8.770;2023-04-26T07:04:33;96287.56;;;13.51;78.04
36386;BME280;24125;47.482;8.770;2023-04-26T07:07:07;96285.03;;;13.70;76.83
36386;BME280;24125;47.482;8.770;2023-04-26T07:09:43;96290.44;;;13.86;77.73
36386;BME280;24125;47.482;8.770;2023-04-26T07:12:16;96281.56;;;13.97;76.51
36386;BME280;24125;47.482;8.770;2023-04-26T07:14:50;96279.50;;;14.07;77.02
36386;BME280;24125;47.482;8.770;2023-04-26T07:17:23;96277.31;;;14.12;74.75
36386;BME280;24125;47.482;8.770;2023-04-26T07:19:55;96278.63;;;14.18;75.17
36386;BME280;24125;47.482;8.770;2023-04-26T07:22:28;96286.78;;;14.22;75.29
36386;BME280;24125;47.482;8.770;2023-04-26T07:25:01;96279.22;;;14.27;75.71
36386;BME280;24125;47.482;8.770;2023-04-26T07:27:35;96277.09;;;14.33;77.00
36386;BME280;24125;47.482;8.770;2023-04-26T07:30:10;96275.72;;;14.39;76.49
36386;BME280;24125;47.482;8.770;2023-04-26T07:32:43;96282.81;;;14.47;76.58
36386;BME280;24125;47.482;8.770;2023-04-26T07:35:16;96277.22;;;14.52;73.37
36386;BME280;24125;47.482;8.770;2023-04-26T07:37:49;96268.09;;;14.57;74.15
36386;BME280;24125;47.482;8.770;2023-04-26T07:40:22;96269.38;;;14.63;75.39
36386;BME280;24125;47.482;8.770;2023-04-26T07:42:56;96272.59;;;14.68;74.93
36386;BME280;24125;47.482;8.770;2023-04-26T07:45:30;96268.50;;;14.75;74.24
36386;BME280;24125;47.482;8.770;2023-04-26T07:48:03;96259.03;;;14.81;74.05
36386;BME280;24125;47.482;8.770;2023-04-26T07:50:36;96264.16;;;14.86;73.13
36386;BME280;24125;47.482;8.770;2023-04-26T07:53:09;96260.75;;;14.89;71.78
36386;BME280;24125;47.482;8.770;2023-04-26T07:55:42;96259.28;;;14.91;72.82
36386;BME280;24125;47.482;8.770;2023-04-26T07:58:15;96262.06;;;14.95;73.65
36386;BME280;24125;47.482;8.770;2023-04-26T08:00:49;96259.78;;;14.97;71.81
36386;BME280;24125;47.482;8.770;2023-04-26T08:03:22;96258.31;;;14.99;73.40
36386;BME280;24125;47.482;8.770;2023-04-26T08:05:55;96255.63;;;14.99;69.10
36386;BME280;24125;47.482;8.770;2023-04-26T08:08:29;96258.31;;;14.99;71.84
36386;BME280;24125;47.482;8.770;2023-04-26T08:11:06;96257.88;;;14.97;72.58
36386;BME280;24125;47.482;8.770;2023-04-26T08:13:38;96261.63;;;14.93;72.95
36386;BME280;24125;47.482;8.770;2023-04-26T08:16:13;96262.25;;;14.86;73.60
36386;BME280;24125;47.482;8.770;2023-04-26T08:18:46;96254.09;;;14.83;74.35
36386;BME280;24125;47.482;8.770;2023-04-26T08:21:18;96257.47;;;14.80;74.22
36386;BME280;24125;47.482;8.770;2023-04-26T08:23:51;96255.16;;;14.78;72.37
36386;BME280;24125;47.482;8.770;2023-04-26T08:26:24;96260.94;;;14.80;73.35
36386;BME280;24125;47.482;8.770;2023-04-26T08:28:57;96253.66;;;14.81;73.42
36386;BME280;24125;47.482;8.770;2023-04-26T08:31:31;96258.69;;;14.82;72.87
36386;BME280;24125;47.482;8.770;2023-04-26T08:34:05;96253.31;;;14.82;73.45
36386;BME280;24125;47.482;8.770;2023-04-26T08:36:39;96251.13;;;14.88;74.58
36386;BME280;24125;47.482;8.770;2023-04-26T08:39:12;96248.19;;;14.93;75.88
36386;BME280;24125;47.482;8.770;2023-04-26T08:41:48;96258.31;;;14.99;75.64
36386;BME280;24125;47.482;8.770;2023-04-26T08:44:22;96263.06;;;15.06;74.96
36386;BME280;24125;47.482;8.770;2023-04-26T08:46:59;96262.06;;;15.14;75.47
36386;BME280;24125;47.482;8.770;2023-04-26T08:49:37;96262.66;;;15.23;74.26
36386;BME280;24125;47.482;8.770;2023-04-26T08:52:12;96260.88;;;15.31;72.83
36386;BME280;24125;47.482;8.770;2023-04-26T08:54:48;96250.34;;;15.41;73.59
36386;BME280;24125;47.482;8.770;2023-04-26T08:57:21;96253.25;;;15.52;71.90
36386;BME280;24125;47.482;8.770;2023-04-26T08:59:55;96262.00;;;15.65;74.13
36386;BME280;24125;47.482;8.770;2023-04-26T09:02:30;96260.69;;;15.78;72.85
36386;BME280;24125;47.482;8.770;2023-04-26T09:05:06;96266.00;;;15.94;75.90
36386;BME280;24125;47.482;8.770;2023-04-26T09:07:40;96275.13;;;16.08;76.94
36386;BME280;24125;47.482;8.770;2023-04-26T09:10:16;96266.06;;;16.20;75.21
36386;BME280;24125;47.482;8.770;2023-04-26T09:12:51;96263.63;;;16.34;76.15
36386;BME280;24125;47.482;8.770;2023-04-26T09:15:25;96261.53;;;16.47;73.50
36386;BME280;24125;47.482;8.770;2023-04-26T09:18:07;96266.72;;;16.59;72.93
36386;BME280;24125;47.482;8.770;2023-04-26T09:21:00;96258.47;;;16.71;75.89
36386;BME280;24125;47.482;8.770;2023-04-26T09:23:33;96265.94;;;16.81;74.75
36386;BME280;24125;47.482;8.770;2023-04-26T09:26:16;96259.50;;;16.89;75.52
36386;BME280;24125;47.482;8.770;2023-04-26T09:28:50;96254.19;;;16.93;74.53
36386;BME280;24125;47.482;8.770;2023-04-26T09:31:43;96262.72;;;16.98;73.74
36386;BME280;24125;47.482;8.770;2023-04-26T09:34:21;96262.47;;;17.07;74.69
36386;BME280;24125;47.482;8.770;2023-04-26T09:36:54;96256.38;;;17.14;73.83
36386;BME280;24125;47.482;8.770;2023-04-26T09:39:31;96252.59;;;17.18;70.43
36386;BME280;24125;47.482;8.770;2023-04-26T09:42:04;96264.63;;;17.24;74.79
36386;BME280;24125;47.482;8.770;2023-04-26T09:44:37;96256.94;;;17.26;72.32
36386;BME280;24125;47.482;8.770;2023-04-26T09:47:10;96258.84;;;17.26;74.63
36386;BME280;24125;47.482;8.770;2023-04-26T09:49:45;96254.97;;;17.23;73.71
36386;BME280;24125;47.482;8.770;2023-04-26T09:52:19;96253.78;;;17.21;73.82
36386;BME280;24125;47.482;8.770;2023-04-26T09:54:52;96252.63;;;17.22;70.19
36386;BME280;24125;47.482;8.770;2023-04-26T09:57:26;96256.88;;;17.23;67.38
36386;BME280;24125;47.482;8.770;2023-04-26T09:59:58;96244.66;;;17.29;70.97
36386;BME280;24125;47.482;8.770;2023-04-26T10:02:31;96240.50;;;17.39;73.00
36386;BME280;24125;47.482;8.770;2023-04-26T10:05:06;96241.06;;;17.51;73.83
36386;BME280;24125;47.482;8.770;2023-04-26T10:07:39;96240.16;;;17.70;76.12
36386;BME280;24125;47.482;8.770;2023-04-26T10:10:13;96241.13;;;17.92;77.57
36386;BME280;24125;47.482;8.770;2023-04-26T10:12:46;96249.09;;;18.15;78.84
36386;BME280;24125;47.482;8.770;2023-04-26T10:15:19;96234.19;;;18.35;76.88
36386;BME280;24125;47.482;8.770;2023-04-26T10:17:52;96241.72;;;18.56;77.15
36386;BME280;24125;47.482;8.770;2023-04-26T10:20:27;96229.91;;;18.74;77.54
36386;BME280;24125;47.482;8.770;2023-04-26T10:23:00;96229.25;;;18.92;72.66
36386;BME280;24125;47.482;8.770;2023-04-26T10:25:33;96235.53;;;19.10;74.74
36386;BME280;24125;47.482;8.770;2023-04-26T10:28:06;96236.78;;;19.27;76.39
36386;BME280;24125;47.482;8.770;2023-04-26T10:33:30;96230.41;;;19.63;74.53
36386;BME280;24125;47.482;8.770;2023-04-26T10:36:09;96228.50;;;19.78;74.56
36386;BME280;24125;47.482;8.770;2023-04-26T10:39:16;96218.84;;;19.91;74.56
36386;BME280;24125;47.482;8.770;2023-04-26T10:41:35;96210.34;;;20.03;70.94
36386;BME280;24125;47.482;8.770;2023-04-26T10:47:10;96213.09;;;20.14;70.93
36386;BME280;24125;47.482;8.770;2023-04-26T10:49:52;96205.31;;;20.16;70.00
36386;BME280;24125;47.482;8.770;2023-04-26T10:52:26;96196.03;;;20.17;70.01
36386;BME280;24125;47.482;8.770;2023-04-26T10:54:58;96199.50;;;20.17;70.87
36386;BME280;24125;47.482;8.770;2023-04-26T10:57:45;96189.84;;;20.20;72.31
36386;BME280;24125;47.482;8.770;2023-04-26T11:00:25;96194.09;;;20.24;70.89
36386;BME280;24125;47.482;8.770;2023-04-26T11:03:03;96194.09;;;20.28;71.06
36386;BME280;24125;47.482;8.770;2023-04-26T11:05:38;96185.22;;;20.34;72.01
36386;BME280;24125;47.482;8.770;2023-04-26T11:08:17;96182.13;;;20.36;68.53
36386;BME280;24125;47.482;8.770;2023-04-26T11:10:52;96184.47;;;20.38;71.06
36386;BME280;24125;47.482;8.770;2023-04-26T11:13:29;96189.88;;;20.38;72.37
36386;BME280;24125;47.482;8.770;2023-04-26T11:16:02;96182.53;;;20.38;67.53
36386;BME280;24125;47.482;8.770;2023-04-26T11:18:36;96181.72;;;20.41;72.42
36386;BME280;24125;47.482;8.770;2023-04-26T11:21:10;96184.84;;;20.43;67.32
36386;BME280;24125;47.482;8.770;2023-04-26T11:23:53;96184.06;;;20.46;69.45
36386;BME280;24125;47.482;8.770;2023-04-26T11:26:31;96176.69;;;20.50;71.54
36386;BME280;24125;47.482;8.770;2023-04-26T11:29:06;96174.75;;;20.54;74.52
36386;BME280;24125;47.482;8.770;2023-04-26T11:31:39;96178.22;;;20.62;75.28
36386;BME280;24125;47.482;8.770;2023-04-26T11:34:12;96178.59;;;20.71;75.25
36386;BME280;24125;47.482;8.770;2023-04-26T11:36:44;96175.47;;;20.80;76.05
36386;BME280;24125;47.482;8.770;2023-04-26T11:39:22;96169.66;;;20.88;76.71
36386;BME280;24125;47.482;8.770;2023-04-26T11:41:55;96173.50;;;20.98;77.46
36386;BME280;24125;47.482;8.770;2023-04-26T11:44:35;96170.75;;;21.05;74.67
36386;BME280;24125;47.482;8.770;2023-04-26T11:47:09;96164.91;;;21.14;74.10
36386;BME280;24125;47.482;8.770;2023-04-26T11:49:42;96165.69;;;21.21;71.62
36386;BME280;24125;47.482;8.770;2023-04-26T11:52:15;96174.56;;;21.29;69.77
36386;BME280;24125;47.482;8.770;2023-04-26T11:54:49;96171.44;;;21.37;72.39
36386;BME280;24125;47.482;8.770;2023-04-26T11:57:34;96174.50;;;21.46;75.02
36386;BME280;24125;47.482;8.770;2023-04-26T12:00:10;96171.00;;;21.53;73.41
36386;BME280;24125;47.482;8.770;2023-04-26T12:02:45;96172.09;;;21.63;74.22
36386;BME280;24125;47.482;8.770;2023-04-26T12:05:22;96167.41;;;21.70;71.81
36386;BME280;24125;47.482;8.770;2023-04-26T12:07:56;96172.41;;;21.75;69.33
36386;BME280;24125;47.482;8.770;2023-04-26T12:10:32;96170.03;;;21.81;67.56
36386;BME280;24125;47.482;8.770;2023-04-26T12:13:05;96163.44;;;21.86;65.84
36386;BME280;24125;47.482;8.770;2023-04-26T12:15:39;96166.91;;;21.86;63.09
36386;BME280;24125;47.482;8.770;2023-04-26T12:18:12;96173.47;;;21.89;66.85
36386;BME280;24125;47.482;8.770;2023-04-26T12:20:45;96174.69;;;21.88;67.14
36386;BME280;24125;47.482;8.770;2023-04-26T12:23:18;96163.44;;;21.86;69.55
36386;BME280;24125;47.482;8.770;2023-04-26T12:25:53;96166.53;;;21.84;68.99
36386;BME280;24125;47.482;8.770;2023-04-26T12:28:26;96171.22;;;21.80;62.82
36386;BME280;24125;47.482;8.770;2023-04-26T12:30:58;96165.78;;;21.80;66.54
36386;BME280;24125;47.482;8.770;2023-04-26T12:33:51;96171.63;;;21.78;67.89
36386;BME280;24125;47.482;8.770;2023-04-26T12:36:25;96167.75;;;21.76;64.36
36386;BME280;24125;47.482;8.770;2023-04-26T12:38:58;96164.66;;;21.74;67.19
36386;BME280;24125;47.482;8.770;2023-04-26T12:41:35;96160.38;;;21.73;65.49
36386;BME280;24125;47.482;8.770;2023-04-26T12:44:08;96157.28;;;21.74;68.31
36386;BME280;24125;47.482;8.770;2023-04-26T12:46:41;96155.31;;;21.78;71.01
36386;BME280;24125;47.482;8.770;2023-04-26T12:49:14;96162.66;;;21.85;67.73
36386;BME280;24125;47.482;8.770;2023-04-26T12:51:46;96160.28;;;21.91;65.12
36386;BME280;24125;47.482;8.770;2023-04-26T12:54:19;96158.66;;;21.97;69.19
36386;BME280;24125;47.482;8.770;2023-04-26T12:56:53;96167.22;;;22.02;70.10
36386;BME280;24125;47.482;8.770;2023-04-26T12:59:26;96164.88;;;22.04;64.15
36386;BME280;24125;47.482;8.770;2023-04-26T13:01:59;96158.28;;;22.05;67.42
36386;BME280;24125;47.482;8.770;2023-04-26T13:04:34;96155.13;;;22.07;65.03
36386;BME280;24125;47.482;8.770;2023-04-26T13:07:11;96156.28;;;22.09;65.50
36386;BME280;24125;47.482;8.770;2023-04-26T13:09:44;96159.00;;;22.13;71.08
36386;BME280;24125;47.482;8.770;2023-04-26T13:12:18;96162.06;;;22.15;70.22
36386;BME280;24125;47.482;8.770;2023-04-26T13:14:51;96143.81;;;22.15;72.17
36386;BME280;24125;47.482;8.770;2023-04-26T13:17:24;96144.97;;;22.18;71.16
36386;BME280;24125;47.482;8.770;2023-04-26T13:19:57;96147.28;;;22.19;65.90
36386;BME280;24125;47.482;8.770;2023-04-26T13:22:30;96144.94;;;22.22;65.45
36386;BME280;24125;47.482;8.770;2023-04-26T13:25:03;96134.41;;;22.24;63.08
36386;BME280;24125;47.482;8.770;2023-04-26T13:27:37;96130.91;;;22.23;67.38
36386;BME280;24125;47.482;8.770;2023-04-26T13:32:43;96124.38;;;22.17;67.97
36386;BME280;24125;47.482;8.770;2023-04-26T13:35:16;96130.63;;;22.14;70.14
36386;BME280;24125;47.482;8.770;2023-04-26T13:37:49;96124.03;;;22.11;68.68
36386;BME280;24125;47.482;8.770;2023-04-26T13:40:22;96113.97;;;22.08;71.25
36386;BME280;24125;47.482;8.770;2023-04-26T13:42:56;96114.34;;;22.10;71.41
36386;BME280;24125;47.482;8.770;2023-04-26T13:45:29;96115.50;;;22.13;71.79
36386;BME280;24125;47.482;8.770;2023-04-26T13:48:07;96104.56;;;22.16;69.94